sensor_id;sensor_type;location;lat;lon;timestamp;pressure;altitude;pressure_sealevel;temperature;humidity
48530;BME280;34927;37.302;-121.982;2023-02-19T00:00:47;100924.0;;;24.16;24.43
48530;BME280;34927;37.302;-121.982;2023-02-19T00:01:52;100922.0;;;24.05;24.65
48530;BME280;34927;37.302;-121.982;2023-02-19T00:02:57;100918.0;;;23.99;24.63
48530;BME280;34927;37.302;-121.982;2023-02-19T00:04:04;100919.0;;;24.12;24.64
48530;BME280;34927;37.302;-121.982;2023-02-19T00:05:07;100918.0;;;24.21;24.48
48530;BME280;34927;37.302;-121.982;2023-02-19T00:06:12;100916.0;;;24.30;24.47
48530;BME280;34927;37.302;-121.982;2023-02-19T00:07:16;100916.0;;;24.35;24.52
48530;BME280;34927;37.302;-121.982;2023-02-19T00:08:22;100914.0;;;24.27;24.42
48530;BME280;34927;37.302;-121.982;2023-02-19T00:09:26;100910.0;;;24.06;24.62
48530;BME280;34927;37.302;-121.982;2023-02-19T00:10:31;100910.0;;;23.93;24.66
48530;BME280;34927;37.302;-121.982;2023-02-19T00:11:37;100908.0;;;23.82;24.77
48530;BME280;34927;37.302;-121.982;2023-02-19T00:12:41;100905.0;;;23.79;24.67
48530;BME280;34927;37.302;-121.982;2023-02-19T00:13:49;100905.0;;;23.80;24.64
48530;BME280;34927;37.302;-121.982;2023-02-19T00:14:51;100903.0;;;23.75;24.74
48530;BME280;34927;37.302;-121.982;2023-02-19T00:15:56;100902.0;;;23.67;24.92
48530;BME280;34927;37.302;-121.982;2023-02-19T00:17:01;100904.0;;;23.63;25.01
48530;BME280;34927;37.302;-121.982;2023-02-19T00:18:07;100904.0;;;23.65;25.05
48530;BME280;34927;37.302;-121.982;2023-02-19T00:19:14;100904.0;;;23.61;25.16
48530;BME280;34927;37.302;-121.982;2023-02-19T00:20:17;100905.0;;;23.60;25.22
48530;BME280;34927;37.302;-121.982;2023-02-19T00:21:22;100906.0;;;23.72;25.10
48530;BME280;34927;37.302;-121.982;2023-02-19T00:22:27;100907.0;;;23.61;25.20
48530;BME280;34927;37.302;-121.982;2023-02-19T00:23:32;100904.0;;;23.59;25.21
48530;BME280;34927;37.302;-121.982;2023-02-19T00:24:37;100901.0;;;23.68;25.37
48530;BME280;34927;37.302;-121.982;2023-02-19T00:25:41;100896.0;;;23.77;25.26
48530;BME280;34927;37.302;-121.982;2023-02-19T00:26:46;100892.0;;;23.77;25.40
48530;BME280;34927;37.302;-121.982;2023-02-19T00:27:52;100893.0;;;23.85;25.23
48530;BME280;34927;37.302;-121.982;2023-02-19T00:28:57;100888.0;;;23.81;25.20
48530;BME280;34927;37.302;-121.982;2023-02-19T00:30:02;100889.0;;;23.93;25.20
48530;BME280;34927;37.302;-121.982;2023-02-19T00:31:08;100887.0;;;23.90;25.27
48530;BME280;34927;37.302;-121.982;2023-02-19T00:32:12;100889.0;;;23.81;25.22
48530;BME280;34927;37.302;-121.982;2023-02-19T00:33:16;100889.0;;;23.95;25.15
48530;BME280;34927;37.302;-121.982;2023-02-19T00:34:21;100891.0;;;23.81;25.18
48530;BME280;34927;37.302;-121.982;2023-02-19T00:35:26;100890.0;;;23.79;25.31
48530;BME280;34927;37.302;-121.982;2023-02-19T00:36:33;100894.0;;;23.65;25.50
48530;BME280;34927;37.302;-121.982;2023-02-19T00:37:41;100893.0;;;23.66;25.50
48530;BME280;34927;37.302;-121.982;2023-02-19T00:38:47;100894.0;;;23.68;25.45
48530;BME280;34927;37.302;-121.982;2023-02-19T00:39:51;100895.0;;;23.60;25.61
48530;BME280;34927;37.302;-121.982;2023-02-19T00:40:58;100892.0;;;23.53;25.68
48530;BME280;34927;37.302;-121.982;2023-02-19T00:42:02;100893.0;;;23.59;25.64
48530;BME280;34927;37.302;-121.982;2023-02-19T00:43:06;100893.0;;;23.55;25.66
48530;BME280;34927;37.302;-121.982;2023-02-19T00:44:12;100894.0;;;23.62;25.56
48530;BME280;34927;37.302;-121.982;2023-02-19T00:45:17;100889.0;;;23.74;25.41
48530;BME280;34927;37.302;-121.982;2023-02-19T00:46:23;100888.0;;;23.78;25.41
48530;BME280;34927;37.302;-121.982;2023-02-19T00:47:26;100891.0;;;23.72;25.47
48530;BME280;34927;37.302;-121.982;2023-02-19T00:48:32;100890.0;;;23.82;25.32
48530;BME280;34927;37.302;-121.982;2023-02-19T00:49:37;100890.0;;;23.82;25.31
48530;BME280;34927;37.302;-121.982;2023-02-19T00:50:41;100891.0;;;23.76;25.44
48530;BME280;34927;37.302;-121.982;2023-02-19T00:51:47;100893.0;;;23.69;25.49
48530;BME280;34927;37.302;-121.982;2023-02-19T00:52:52;100891.0;;;23.70;25.44
48530;BME280;34927;37.302;-121.982;2023-02-19T00:53:57;100894.0;;;23.72;25.52
48530;BME280;34927;37.302;-121.982;2023-02-19T00:55:02;100893.0;;;23.71;25.44
48530;BME280;34927;37.302;-121.982;2023-02-19T00:56:07;100893.0;;;23.78;25.31
48530;BME280;34927;37.302;-121.982;2023-02-19T00:57:11;100893.0;;;23.77;25.43
48530;BME280;34927;37.302;-121.982;2023-02-19T00:58:16;100898.0;;;23.69;25.55
48530;BME280;34927;37.302;-121.982;2023-02-19T00:59:21;100899.0;;;23.53;25.85
48530;BME280;34927;37.302;-121.982;2023-02-19T01:00:26;100899.0;;;23.57;25.76
48530;BME280;34927;37.302;-121.982;2023-02-19T01:01:32;100903.0;;;23.54;25.86
48530;BME280;34927;37.302;-121.982;2023-02-19T01:02:36;100905.0;;;23.54;25.84
48530;BME280;34927;37.302;-121.982;2023-02-19T01:03:42;100905.0;;;23.52;25.69
48530;BME280;34927;37.302;-121.982;2023-02-19T01:04:47;100905.0;;;23.55;25.69
48530;BME280;34927;37.302;-121.982;2023-02-19T01:05:52;100906.0;;;23.48;25.92
48530;BME280;34927;37.302;-121.982;2023-02-19T01:06:56;100907.0;;;23.38;25.94
48530;BME280;34927;37.302;-121.982;2023-02-19T01:08:02;100909.0;;;23.43;25.92
48530;BME280;34927;37.302;-121.982;2023-02-19T01:09:06;100911.0;;;23.49;25.79
48530;BME280;34927;37.302;-121.982;2023-02-19T01:10:12;100918.0;;;23.46;25.74
48530;BME280;34927;37.302;-121.982;2023-02-19T01:11:17;100919.0;;;23.36;25.88
48530;BME280;34927;37.302;-121.982;2023-02-19T01:12:22;100922.0;;;23.35;25.89
48530;BME280;34927;37.302;-121.982;2023-02-19T01:13:27;100923.0;;;23.36;25.88
48530;BME280;34927;37.302;-121.982;2023-02-19T01:14:32;100926.0;;;23.39;25.77
48530;BME280;34927;37.302;-121.982;2023-02-19T01:15:37;100928.0;;;23.43;25.70
48530;BME280;34927;37.302;-121.982;2023-02-19T01:16:42;100928.0;;;23.38;25.80
48530;BME280;34927;37.302;-121.982;2023-02-19T01:17:46;100932.0;;;23.31;25.86
48530;BME280;34927;37.302;-121.982;2023-02-19T01:18:51;100932.0;;;23.35;25.81
48530;BME280;34927;37.302;-121.982;2023-02-19T01:19:56;100937.0;;;23.28;25.87
48530;BME280;34927;37.302;-121.982;2023-02-19T01:21:04;100938.0;;;23.32;25.86
48530;BME280;34927;37.302;-121.982;2023-02-19T01:22:12;100938.0;;;23.34;25.78
48530;BME280;34927;37.302;-121.982;2023-02-19T01:23:16;100944.0;;;23.30;25.85
48530;BME280;34927;37.302;-121.982;2023-02-19T01:24:22;100946.0;;;23.36;25.83
48530;BME280;34927;37.302;-121.982;2023-02-19T01:25:26;100949.0;;;23.25;25.94
48530;BME280;34927;37.302;-121.982;2023-02-19T01:26:32;100952.0;;;23.33;25.80
48530;BME280;34927;37.302;-121.982;2023-02-19T01:27:36;100956.0;;;23.29;25.93
48530;BME280;34927;37.302;-121.982;2023-02-19T01:28:42;100959.0;;;23.30;25.90
48530;BME280;34927;37.302;-121.982;2023-02-19T01:29:46;100960.0;;;23.25;25.95
48530;BME280;34927;37.302;-121.982;2023-02-19T01:30:52;100959.0;;;23.34;25.84
48530;BME280;34927;37.302;-121.982;2023-02-19T01:31:57;100962.0;;;23.31;25.85
48530;BME280;34927;37.302;-121.982;2023-02-19T01:33:01;100963.0;;;23.32;25.86
48530;BME280;34927;37.302;-121.982;2023-02-19T01:34:09;100965.0;;;23.25;25.96
48530;BME280;34927;37.302;-121.982;2023-02-19T01:35:11;100966.0;;;23.31;25.92
48530;BME280;34927;37.302;-121.982;2023-02-19T01:36:17;100967.0;;;23.38;25.79
48530;BME280;34927;37.302;-121.982;2023-02-19T01:37:22;100966.0;;;23.40;25.77
48530;BME280;34927;37.302;-121.982;2023-02-19T01:38:27;100965.0;;;23.41;25.73
48530;BME280;34927;37.302;-121.982;2023-02-19T01:39:32;100963.0;;;23.36;25.80
48530;BME280;34927;37.302;-121.982;2023-02-19T01:40:36;100961.0;;;23.39;25.77
48530;BME280;34927;37.302;-121.982;2023-02-19T01:41:42;100961.0;;;23.36;25.85
48530;BME280;34927;37.302;-121.982;2023-02-19T01:42:47;100962.0;;;23.38;25.79
48530;BME280;34927;37.302;-121.982;2023-02-19T01:43:57;100961.0;;;23.39;25.77
48530;BME280;34927;37.302;-121.982;2023-02-19T01:45:23;100960.0;;;23.34;25.83
48530;BME280;34927;37.302;-121.982;2023-02-19T01:46:27;100963.0;;;23.34;25.84
48530;BME280;34927;37.302;-121.982;2023-02-19T01:47:31;100964.0;;;23.36;25.80
48530;BME280;34927;37.302;-121.982;2023-02-19T01:48:37;100969.0;;;23.38;25.77
48530;BME280;34927;37.302;-121.982;2023-02-19T01:49:43;100971.0;;;23.35;25.83
48530;BME280;34927;37.302;-121.982;2023-02-19T01:50:53;100973.0;;;23.24;25.94
48530;BME280;34927;37.302;-121.982;2023-02-19T01:52:07;100976.0;;;23.20;26.00
48530;BME280;34927;37.302;-121.982;2023-02-19T01:53:13;100977.0;;;23.21;26.03
48530;BME280;34927;37.302;-121.982;2023-02-19T01:54:25;100979.0;;;23.22;26.00
48530;BME280;34927;37.302;-121.982;2023-02-19T01:55:32;100980.0;;;23.13;26.07
48530;BME280;34927;37.302;-121.982;2023-02-19T01:56:37;100981.0;;;23.11;26.09
48530;BME280;34927;37.302;-121.982;2023-02-19T01:57:45;100977.0;;;23.09;26.12
48530;BME280;34927;37.302;-121.982;2023-02-19T01:58:52;100977.0;;;23.08;26.18
48530;BME280;34927;37.302;-121.982;2023-02-19T02:00:01;100980.0;;;23.16;26.09
48530;BME280;34927;37.302;-121.982;2023-02-19T02:01:07;100980.0;;;23.04;26.26
48530;BME280;34927;37.302;-121.982;2023-02-19T02:02:12;100982.0;;;23.12;26.16
48530;BME280;34927;37.302;-121.982;2023-02-19T02:03:17;100985.0;;;23.03;26.24
48530;BME280;34927;37.302;-121.982;2023-02-19T02:04:22;100988.0;;;23.01;26.25
48530;BME280;34927;37.302;-121.982;2023-02-19T02:05:36;100993.0;;;23.05;26.23
48530;BME280;34927;37.302;-121.982;2023-02-19T02:06:45;100996.0;;;22.97;26.36
48530;BME280;34927;37.302;-121.982;2023-02-19T02:07:51;101001.0;;;23.01;26.35
48530;BME280;34927;37.302;-121.982;2023-02-19T02:08:58;101001.0;;;22.94;26.35
48530;BME280;34927;37.302;-121.982;2023-02-19T02:10:02;101005.0;;;22.93;26.37
48530;BME280;34927;37.302;-121.982;2023-02-19T02:11:06;101005.0;;;22.93;26.40
48530;BME280;34927;37.302;-121.982;2023-02-19T02:12:12;101004.0;;;22.90;26.41
48530;BME280;34927;37.302;-121.982;2023-02-19T02:13:17;101003.0;;;22.88;26.43
48530;BME280;34927;37.302;-121.982;2023-02-19T02:14:26;101002.0;;;22.88;26.41
48530;BME280;34927;37.302;-121.982;2023-02-19T02:15:37;101001.0;;;22.86;26.47
48530;BME280;34927;37.302;-121.982;2023-02-19T02:16:53;101004.0;;;22.85;26.45
48530;BME280;34927;37.302;-121.982;2023-02-19T02:18:00;101007.0;;;22.81;26.51
48530;BME280;34927;37.302;-121.982;2023-02-19T02:19:17;101007.0;;;22.78;26.55
48530;BME280;34927;37.302;-121.982;2023-02-19T02:20:35;101006.0;;;22.74;26.58
48530;BME280;34927;37.302;-121.982;2023-02-19T02:21:56;101004.0;;;22.73;26.61
48530;BME280;34927;37.302;-121.982;2023-02-19T02:23:08;101004.0;;;22.73;26.62
48530;BME280;34927;37.302;-121.982;2023-02-19T02:25:52;101002.0;;;22.70;26.56
48530;BME280;34927;37.302;-121.982;2023-02-19T02:27:13;101002.0;;;22.73;26.51
48530;BME280;34927;37.302;-121.982;2023-02-19T02:28:33;101002.0;;;22.81;26.42
48530;BME280;34927;37.302;-121.982;2023-02-19T02:29:53;101000.0;;;22.76;26.50
48530;BME280;34927;37.302;-121.982;2023-02-19T02:31:09;100997.0;;;22.72;26.50
48530;BME280;34927;37.302;-121.982;2023-02-19T02:32:20;100998.0;;;22.73;26.45
48530;BME280;34927;37.302;-121.982;2023-02-19T02:33:31;100994.0;;;22.59;26.62
48530;BME280;34927;37.302;-121.982;2023-02-19T02:34:44;100992.0;;;22.62;26.66
48530;BME280;34927;37.302;-121.982;2023-02-19T02:35:55;100987.0;;;22.63;26.62
48530;BME280;34927;37.302;-121.982;2023-02-19T02:37:02;100983.0;;;22.57;26.70
48530;BME280;34927;37.302;-121.982;2023-02-19T02:38:08;100976.0;;;22.57;26.73
48530;BME280;34927;37.302;-121.982;2023-02-19T02:39:21;100973.0;;;22.61;26.69
48530;BME280;34927;37.302;-121.982;2023-02-19T02:40:26;100968.0;;;22.55;26.70
48530;BME280;34927;37.302;-121.982;2023-02-19T02:41:33;100968.0;;;22.62;26.63
48530;BME280;34927;37.302;-121.982;2023-02-19T02:42:39;100969.0;;;22.58;26.71
48530;BME280;34927;37.302;-121.982;2023-02-19T02:43:42;100971.0;;;22.60;26.66
48530;BME280;34927;37.302;-121.982;2023-02-19T02:44:47;100971.0;;;22.57;26.65
48530;BME280;34927;37.302;-121.982;2023-02-19T02:45:51;100974.0;;;22.51;26.74
48530;BME280;34927;37.302;-121.982;2023-02-19T02:46:57;100975.0;;;22.53;26.76
48530;BME280;34927;37.302;-121.982;2023-02-19T02:48:08;100975.0;;;22.50;26.74
48530;BME280;34927;37.302;-121.982;2023-02-19T02:49:20;100975.0;;;22.54;26.69
48530;BME280;34927;37.302;-121.982;2023-02-19T02:50:29;100974.0;;;22.53;26.68
48530;BME280;34927;37.302;-121.982;2023-02-19T02:51:39;100978.0;;;22.50;26.72
48530;BME280;34927;37.302;-121.982;2023-02-19T02:52:48;100978.0;;;22.58;26.63
48530;BME280;34927;37.302;-121.982;2023-02-19T02:53:59;100978.0;;;22.52;26.93
48530;BME280;34927;37.302;-121.982;2023-02-19T02:55:07;100982.0;;;22.45;27.16
48530;BME280;34927;37.302;-121.982;2023-02-19T02:56:14;100981.0;;;22.58;27.01
48530;BME280;34927;37.302;-121.982;2023-02-19T02:57:18;100983.0;;;22.63;26.90
48530;BME280;34927;37.302;-121.982;2023-02-19T02:58:23;100981.0;;;22.67;26.94
48530;BME280;34927;37.302;-121.982;2023-02-19T02:59:29;100983.0;;;22.77;26.86
48530;BME280;34927;37.302;-121.982;2023-02-19T03:00:37;100983.0;;;22.79;26.77
48530;BME280;34927;37.302;-121.982;2023-02-19T03:01:44;100981.0;;;22.75;26.75
48530;BME280;34927;37.302;-121.982;2023-02-19T03:02:52;100981.0;;;22.69;26.63
48530;BME280;34927;37.302;-121.982;2023-02-19T03:04:01;100979.0;;;22.63;26.76
48530;BME280;34927;37.302;-121.982;2023-02-19T03:05:11;100984.0;;;22.63;26.79
48530;BME280;34927;37.302;-121.982;2023-02-19T03:06:18;100986.0;;;22.72;26.60
48530;BME280;34927;37.302;-121.982;2023-02-19T03:07:30;100988.0;;;22.55;26.78
48530;BME280;34927;37.302;-121.982;2023-02-19T03:08:39;100992.0;;;22.49;26.79
48530;BME280;34927;37.302;-121.982;2023-02-19T03:09:46;100993.0;;;22.51;26.73
48530;BME280;34927;37.302;-121.982;2023-02-19T03:10:54;100993.0;;;22.52;26.64
48530;BME280;34927;37.302;-121.982;2023-02-19T03:12:03;100997.0;;;22.49;26.67
48530;BME280;34927;37.302;-121.982;2023-02-19T03:13:09;100997.0;;;22.43;26.75
48530;BME280;34927;37.302;-121.982;2023-02-19T03:14:21;101003.0;;;22.45;26.68
48530;BME280;34927;37.302;-121.982;2023-02-19T03:15:30;101007.0;;;22.37;26.77
48530;BME280;34927;37.302;-121.982;2023-02-19T03:16:39;101008.0;;;22.42;26.68
48530;BME280;34927;37.302;-121.982;2023-02-19T03:17:49;101006.0;;;22.49;26.63
48530;BME280;34927;37.302;-121.982;2023-02-19T03:18:58;101000.0;;;22.40;26.69
48530;BME280;34927;37.302;-121.982;2023-02-19T03:20:06;100995.0;;;22.37;26.72
48530;BME280;34927;37.302;-121.982;2023-02-19T03:21:15;100990.0;;;22.45;26.61
48530;BME280;34927;37.302;-121.982;2023-02-19T03:22:24;100989.0;;;22.36;26.72
48530;BME280;34927;37.302;-121.982;2023-02-19T03:23:32;100992.0;;;22.14;26.94
48530;BME280;34927;37.302;-121.982;2023-02-19T03:24:40;100997.0;;;22.15;26.97
48530;BME280;34927;37.302;-121.982;2023-02-19T03:25:47;100997.0;;;22.31;26.76
48530;BME280;34927;37.302;-121.982;2023-02-19T03:26:52;100999.0;;;22.23;26.87
48530;BME280;34927;37.302;-121.982;2023-02-19T03:27:59;100997.0;;;22.21;26.85
48530;BME280;34927;37.302;-121.982;2023-02-19T03:29:07;100995.0;;;22.13;26.91
48530;BME280;34927;37.302;-121.982;2023-02-19T03:30:14;100992.0;;;22.24;26.79
48530;BME280;34927;37.302;-121.982;2023-02-19T03:31:23;100991.0;;;22.22;26.80
48530;BME280;34927;37.302;-121.982;2023-02-19T03:32:35;100990.0;;;22.09;26.96
48530;BME280;34927;37.302;-121.982;2023-02-19T03:33:43;100991.0;;;21.98;27.05
48530;BME280;34927;37.302;-121.982;2023-02-19T03:34:51;100989.0;;;22.05;26.93
48530;BME280;34927;37.302;-121.982;2023-02-19T03:36:01;100990.0;;;21.96;27.11
48530;BME280;34927;37.302;-121.982;2023-02-19T03:37:10;100992.0;;;21.93;27.10
48530;BME280;34927;37.302;-121.982;2023-02-19T03:38:19;100993.0;;;21.83;27.28
48530;BME280;34927;37.302;-121.982;2023-02-19T03:39:22;100993.0;;;21.80;27.28
48530;BME280;34927;37.302;-121.982;2023-02-19T03:40:30;100995.0;;;21.84;27.25
48530;BME280;34927;37.302;-121.982;2023-02-19T03:41:43;100995.0;;;21.84;27.19
48530;BME280;34927;37.302;-121.982;2023-02-19T03:42:53;100998.0;;;21.76;27.24
48530;BME280;34927;37.302;-121.982;2023-02-19T03:45:22;101007.0;;;21.88;27.05
48530;BME280;34927;37.302;-121.982;2023-02-19T03:46:32;101010.0;;;21.92;27.01
48530;BME280;34927;37.302;-121.982;2023-02-19T03:47:46;101013.0;;;21.88;27.12
48530;BME280;34927;37.302;-121.982;2023-02-19T03:48:55;101015.0;;;21.93;26.98
48530;BME280;34927;37.302;-121.982;2023-02-19T03:50:07;101015.0;;;21.94;27.02
48530;BME280;34927;37.302;-121.982;2023-02-19T03:51:26;101018.0;;;21.96;26.95
48530;BME280;34927;37.302;-121.982;2023-02-19T03:52:37;101019.0;;;21.96;26.89
48530;BME280;34927;37.302;-121.982;2023-02-19T03:53:50;101018.0;;;21.95;26.91
48530;BME280;34927;37.302;-121.982;2023-02-19T03:55:00;101019.0;;;22.02;26.91
48530;BME280;34927;37.302;-121.982;2023-02-19T03:56:09;101023.0;;;22.03;26.79
48530;BME280;34927;37.302;-121.982;2023-02-19T03:57:19;101028.0;;;22.00;26.85
48530;BME280;34927;37.302;-121.982;2023-02-19T03:58:29;101036.0;;;21.97;26.90
48530;BME280;34927;37.302;-121.982;2023-02-19T03:59:42;101040.0;;;21.99;26.85
48530;BME280;34927;37.302;-121.982;2023-02-19T04:00:51;101043.0;;;21.94;26.91
48530;BME280;34927;37.302;-121.982;2023-02-19T04:02:01;101043.0;;;21.96;26.90
48530;BME280;34927;37.302;-121.982;2023-02-19T04:03:10;101046.0;;;21.87;27.00
48530;BME280;34927;37.302;-121.982;2023-02-19T04:04:25;101047.0;;;21.99;26.99
48530;BME280;34927;37.302;-121.982;2023-02-19T04:05:36;101049.0;;;21.77;27.21
48530;BME280;34927;37.302;-121.982;2023-02-19T04:06:43;101049.0;;;22.03;26.92
48530;BME280;34927;37.302;-121.982;2023-02-19T04:07:55;101053.0;;;21.95;27.04
48530;BME280;34927;37.302;-121.982;2023-02-19T04:09:05;101053.0;;;21.88;27.38
48530;BME280;34927;37.302;-121.982;2023-02-19T04:10:12;101055.0;;;21.75;27.51
48530;BME280;34927;37.302;-121.982;2023-02-19T04:11:19;101053.0;;;21.59;27.90
48530;BME280;34927;37.302;-121.982;2023-02-19T04:12:27;101052.0;;;21.49;28.09
48530;BME280;34927;37.302;-121.982;2023-02-19T04:13:34;101054.0;;;21.57;28.14
48530;BME280;34927;37.302;-121.982;2023-02-19T04:14:44;101056.0;;;21.60;27.84
48530;BME280;34927;37.302;-121.982;2023-02-19T04:15:55;101058.0;;;21.72;27.70
48530;BME280;34927;37.302;-121.982;2023-02-19T04:17:03;101061.0;;;21.72;27.63
48530;BME280;34927;37.302;-121.982;2023-02-19T04:18:14;101063.0;;;21.77;27.48
48530;BME280;34927;37.302;-121.982;2023-02-19T04:19:23;101061.0;;;21.64;27.59
48530;BME280;34927;37.302;-121.982;2023-02-19T04:20:31;101064.0;;;21.54;27.71
48530;BME280;34927;37.302;-121.982;2023-02-19T04:21:37;101064.0;;;21.52;27.77
48530;BME280;34927;37.302;-121.982;2023-02-19T04:22:42;101066.0;;;21.53;27.74
48530;BME280;34927;37.302;-121.982;2023-02-19T04:23:47;101069.0;;;21.57;27.63
48530;BME280;34927;37.302;-121.982;2023-02-19T04:24:53;101066.0;;;21.45;27.79
48530;BME280;34927;37.302;-121.982;2023-02-19T04:25:59;101065.0;;;21.60;27.53
48530;BME280;34927;37.302;-121.982;2023-02-19T04:27:02;101063.0;;;21.47;27.72
48530;BME280;34927;37.302;-121.982;2023-02-19T04:28:07;101062.0;;;21.39;27.83
48530;BME280;34927;37.302;-121.982;2023-02-19T04:29:12;101063.0;;;21.42;27.77
48530;BME280;34927;37.302;-121.982;2023-02-19T04:30:17;101063.0;;;21.47;27.73
48530;BME280;34927;37.302;-121.982;2023-02-19T04:31:22;101066.0;;;21.48;27.68
48530;BME280;34927;37.302;-121.982;2023-02-19T04:32:26;101069.0;;;21.48;27.70
48530;BME280;34927;37.302;-121.982;2023-02-19T04:33:32;101071.0;;;21.44;27.83
48530;BME280;34927;37.302;-121.982;2023-02-19T04:34:37;101074.0;;;21.50;27.80
48530;BME280;34927;37.302;-121.982;2023-02-19T04:35:42;101077.0;;;21.73;27.70
48530;BME280;34927;37.302;-121.982;2023-02-19T04:36:47;101080.0;;;22.05;27.40
48530;BME280;34927;37.302;-121.982;2023-02-19T04:37:52;101082.0;;;22.37;27.15
48530;BME280;34927;37.302;-121.982;2023-02-19T04:38:57;101078.0;;;22.74;26.79
48530;BME280;34927;37.302;-121.982;2023-02-19T04:40:02;101079.0;;;23.03;26.38
48530;BME280;34927;37.302;-121.982;2023-02-19T04:41:07;101078.0;;;23.35;26.00
48530;BME280;34927;37.302;-121.982;2023-02-19T04:42:12;101078.0;;;23.59;25.68
48530;BME280;34927;37.302;-121.982;2023-02-19T04:43:20;101076.0;;;23.82;25.48
48530;BME280;34927;37.302;-121.982;2023-02-19T04:44:37;101081.0;;;24.02;25.22
48530;BME280;34927;37.302;-121.982;2023-02-19T04:45:42;101083.0;;;24.07;25.07
48530;BME280;34927;37.302;-121.982;2023-02-19T04:48:19;101086.0;;;23.73;25.69
48530;BME280;34927;37.302;-121.982;2023-02-19T04:49:28;101084.0;;;23.44;25.83
48530;BME280;34927;37.302;-121.982;2023-02-19T04:50:32;101082.0;;;23.36;25.80
48530;BME280;34927;37.302;-121.982;2023-02-19T04:51:38;101081.0;;;23.35;25.78
48530;BME280;34927;37.302;-121.982;2023-02-19T04:52:42;101082.0;;;23.25;25.88
48530;BME280;34927;37.302;-121.982;2023-02-19T04:53:47;101083.0;;;23.09;26.09
48530;BME280;34927;37.302;-121.982;2023-02-19T04:54:51;101084.0;;;22.99;26.14
48530;BME280;34927;37.302;-121.982;2023-02-19T04:55:57;101086.0;;;22.84;26.33
48530;BME280;34927;37.302;-121.982;2023-02-19T04:57:15;101092.0;;;22.99;26.17
48530;BME280;34927;37.302;-121.982;2023-02-19T04:58:22;101092.0;;;23.19;26.03
48530;BME280;34927;37.302;-121.982;2023-02-19T04:59:27;101096.0;;;23.41;25.83
48530;BME280;34927;37.302;-121.982;2023-02-19T05:00:32;101096.0;;;23.65;25.56
48530;BME280;34927;37.302;-121.982;2023-02-19T05:01:37;101100.0;;;23.91;25.30
48530;BME280;34927;37.302;-121.982;2023-02-19T05:02:41;101099.0;;;24.06;25.08
48530;BME280;34927;37.302;-121.982;2023-02-19T05:03:47;101103.0;;;24.32;24.73
48530;BME280;34927;37.302;-121.982;2023-02-19T05:04:52;101102.0;;;24.40;24.64
48530;BME280;34927;37.302;-121.982;2023-02-19T05:05:56;101105.0;;;24.24;24.77
48530;BME280;34927;37.302;-121.982;2023-02-19T05:07:02;101106.0;;;24.03;25.27
48530;BME280;34927;37.302;-121.982;2023-02-19T05:08:06;101105.0;;;23.87;25.28
48530;BME280;34927;37.302;-121.982;2023-02-19T05:09:11;101105.0;;;23.65;25.49
48530;BME280;34927;37.302;-121.982;2023-02-19T05:10:23;101107.0;;;23.54;25.63
48530;BME280;34927;37.302;-121.982;2023-02-19T05:11:27;101106.0;;;23.41;25.82
48530;BME280;34927;37.302;-121.982;2023-02-19T05:12:32;101107.0;;;23.35;26.00
48530;BME280;34927;37.302;-121.982;2023-02-19T05:13:37;101111.0;;;23.29;26.00
48530;BME280;34927;37.302;-121.982;2023-02-19T05:14:42;101114.0;;;23.28;26.00
48530;BME280;34927;37.302;-121.982;2023-02-19T05:15:54;101111.0;;;23.11;26.13
48530;BME280;34927;37.302;-121.982;2023-02-19T05:16:57;101112.0;;;23.11;26.14
48530;BME280;34927;37.302;-121.982;2023-02-19T05:18:02;101109.0;;;23.05;25.96
48530;BME280;34927;37.302;-121.982;2023-02-19T05:19:08;101110.0;;;23.22;25.95
48530;BME280;34927;37.302;-121.982;2023-02-19T05:20:12;101107.0;;;23.41;25.78
48530;BME280;34927;37.302;-121.982;2023-02-19T05:21:17;101107.0;;;23.66;25.55
48530;BME280;34927;37.302;-121.982;2023-02-19T05:22:22;101110.0;;;23.95;25.18
48530;BME280;34927;37.302;-121.982;2023-02-19T05:23:27;101112.0;;;24.24;24.86
48530;BME280;34927;37.302;-121.982;2023-02-19T05:24:32;101115.0;;;24.43;24.57
48530;BME280;34927;37.302;-121.982;2023-02-19T05:25:36;101113.0;;;24.47;24.40
48530;BME280;34927;37.302;-121.982;2023-02-19T05:26:42;101115.0;;;24.41;24.58
48530;BME280;34927;37.302;-121.982;2023-02-19T05:27:46;101115.0;;;24.35;24.82
48530;BME280;34927;37.302;-121.982;2023-02-19T05:28:52;101113.0;;;24.04;25.08
48530;BME280;34927;37.302;-121.982;2023-02-19T05:29:56;101112.0;;;23.90;25.23
48530;BME280;34927;37.302;-121.982;2023-02-19T05:31:05;101111.0;;;23.68;25.34
48530;BME280;34927;37.302;-121.982;2023-02-19T05:32:12;101112.0;;;23.50;25.45
48530;BME280;34927;37.302;-121.982;2023-02-19T05:33:17;101111.0;;;23.41;25.50
48530;BME280;34927;37.302;-121.982;2023-02-19T05:34:22;101114.0;;;23.33;25.58
48530;BME280;34927;37.302;-121.982;2023-02-19T05:35:27;101115.0;;;23.20;25.65
48530;BME280;34927;37.302;-121.982;2023-02-19T05:36:32;101117.0;;;23.12;25.73
48530;BME280;34927;37.302;-121.982;2023-02-19T05:37:37;101119.0;;;23.00;25.85
48530;BME280;34927;37.302;-121.982;2023-02-19T05:38:42;101120.0;;;23.06;25.62
48530;BME280;34927;37.302;-121.982;2023-02-19T05:39:48;101124.0;;;23.27;25.47
48530;BME280;34927;37.302;-121.982;2023-02-19T05:40:51;101123.0;;;23.53;25.32
48530;BME280;34927;37.302;-121.982;2023-02-19T05:41:57;101123.0;;;23.79;25.04
48530;BME280;34927;37.302;-121.982;2023-02-19T05:43:02;101125.0;;;24.03;24.79
48530;BME280;34927;37.302;-121.982;2023-02-19T05:44:13;101125.0;;;24.32;24.52
48530;BME280;34927;37.302;-121.982;2023-02-19T05:45:25;101126.0;;;24.54;24.27
48530;BME280;34927;37.302;-121.982;2023-02-19T05:46:31;101124.0;;;24.56;24.20